Time;durP1;ratioP1;P1;durP2;ratioP2;P2;SDS_P1;SDS_P2;PMS_P1;PMS_P2;Temp;Humidity;BMP_temperature;BMP_pressure;BME280_temperature;BME280_humidity;BME280_pressure;Samples;Min_cycle;Max_cycle;Signal;HPM_P1;HPM_P2
2022/02/07 00:04:17;;;;;;;;;;;;;;;4.32;95.04;94362.56;10486366;28;1923;-69
2022/02/07 00:09:20;;;;;;;;;;;4.50;99.90;;;1.34;100.00;94402.44;10468271;28;1857;-71
2022/02/07 00:14:24;;;;;;;;;;;2.20;99.90;;;0.70;100.00;94374.94;10485763;28;1813;-73
2022/02/07 00:19:28;;;;;;;;;;;;;;;0.50;100.00;94334.00;10466708;28;1909;-73
2022/02/07 00:24:33;;;;;;;;;;;;;;;0.37;100.00;94310.56;10482818;28;1876;-72
2022/02/07 00:29:38;;;;;;;;;;;;;;;0.21;100.00;94373.00;10466383;28;1749;-73
2022/02/07 00:34:40;;;;;;;;;;;1.20;99.90;;;0.18;100.00;94389.34;10473119;28;1836;-73
2022/02/07 00:39:48;;;;;;;;;;;1.10;99.90;;;0.30;100.00;94359.38;10483279;28;1984;-73
2022/02/07 00:44:51;;;;;;;;;;;1.00;99.90;;;0.34;100.00;94342.78;10482440;28;1865;-73
2022/02/07 00:49:56;;;;;;;;;;;1.30;99.90;;;0.45;100.00;94335.81;10478237;28;1974;-73
2022/02/07 00:55:00;;;;;;;;;;;1.30;99.90;;;0.45;100.00;94370.97;10466853;28;2490;-72
2022/02/07 01:00:03;;;;;;;;;;;1.30;99.90;;;0.41;100.00;94377.78;10482680;28;1922;-72
2022/02/07 01:05:07;;;;;;;;;;;1.30;99.90;;;0.33;100.00;94423.13;10479479;28;1843;-72
2022/02/07 01:10:11;;;;;;;;;;;1.20;99.90;;;0.29;100.00;94463.50;10470407;28;1803;-72
2022/02/07 01:15:25;;;;;;;;;;;1.20;99.90;;;0.34;100.00;94472.31;10481757;28;1872;-71
2022/02/07 01:21:01;;;;;;;;;;;1.10;99.90;;;0.25;100.00;94484.31;10477766;28;2010;-70
2022/02/07 01:48:06;;;;;;;;;;;;;;;-0.15;100.00;94567.13;10483070;28;1832;-73
2022/02/07 01:53:19;;;;;;;;;;;;;;;-0.08;100.00;94610.06;10460770;28;1868;-73
2022/02/07 01:58:23;;;;;;;;;;;;;;;-0.05;100.00;94617.53;10481306;28;1981;-72
2022/02/07 02:03:27;;;;;;;;;;;;;;;0.01;100.00;94622.91;10465491;28;2016;-72
2022/02/07 02:08:30;;;;;;;;;;;;;;;0.05;100.00;94643.31;10476007;28;1948;-72
2022/02/07 02:13:49;;;;;;;;;;;;;;;0.08;100.00;94689.63;10488155;28;1848;-72
2022/02/07 02:45:50;;;;;;;;;;;;;;;0.23;100.00;94748.06;10471780;28;1876;-71
2022/02/07 02:50:56;;;;;;;;;;;;;;;0.24;100.00;94770.81;10463715;28;1849;-70
2022/02/07 02:56:00;;;;;;;;;;;;;;;0.18;100.00;94750.59;10467337;28;1772;-70
2022/02/07 03:01:04;;;;;;;;;;;;;;;0.17;100.00;94778.88;10485329;28;1987;-71
2022/02/07 03:06:13;;;;;;;;;;;;;;;0.17;100.00;94813.22;10493063;22;1907;-80
2022/02/07 03:11:23;;;;;;;;;;;;;;;0.19;100.00;94819.09;10524897;28;1882;-82
2022/02/07 03:16:38;;;;;;;;;;;;;;;0.22;100.00;94844.25;10528140;28;1867;-81
2022/02/07 03:21:43;;;;;;;;;;;;;;;0.32;100.00;94827.78;10535479;28;1956;-82
2022/02/07 03:26:51;;;;;;;;;;;;;;;0.37;100.00;94836.63;10532838;28;1874;-81
2022/02/07 03:31:58;;;;;;;;;;;;;;;0.40;100.00;94851.25;10553997;28;1776;-81
2022/02/07 03:37:01;;;;;;;;;;;;;;;0.32;100.00;94881.50;10550949;28;1740;-82
2022/02/07 03:42:05;;;;;;;;;;;;;;;0.37;100.00;94925.72;10536851;28;1912;-81
2022/02/07 03:47:20;;;;;;;;;;;;;;;0.40;100.00;94934.00;10533021;28;1833;-81
2022/02/07 03:52:24;;;;;;;;;;;;;;;0.44;100.00;94948.34;10531780;28;1864;-80
2022/02/07 03:57:29;;;;;;;;;;;;;;;0.47;100.00;94955.84;10520230;28;1967;-81
2022/02/07 04:02:41;;;;;;;;;;;;;;;0.50;100.00;94989.75;10527243;28;1792;-81
2022/02/07 04:07:44;;;;;;;;;;;1.40;99.90;;;0.50;100.00;95008.25;10528125;28;1784;-80
2022/02/07 04:12:53;;;;;;;;;;;1.50;99.90;;;0.53;100.00;95025.50;10525481;28;1836;-81
2022/02/07 04:18:01;;;;;;;;;;;1.50;99.90;;;0.60;100.00;95044.72;10538204;28;1890;-80
2022/02/07 04:23:04;;;;;;;;;;;2.20;99.90;;;0.59;100.00;95050.25;10529794;28;1485;-80
2022/02/07 04:28:08;;;;;;;;;;;2.20;99.90;;;0.58;100.00;95080.38;10533426;28;1696;-82
2022/02/07 04:33:11;;;;;;;;;;;1.60;99.90;;;0.55;100.00;95108.06;10539523;28;1887;-81
2022/02/07 04:38:14;;;;;;;;;;;1.60;99.90;;;0.43;100.00;95113.31;10530312;28;1894;-80
2022/02/07 04:43:19;;;;;;;;;;;1.50;99.90;;;0.45;100.00;95107.84;10539179;28;1840;-82
2022/02/07 04:54:07;;;;;;;;;;;1.40;99.90;;;0.29;100.00;95114.56;10529996;28;1875;-84
2022/02/07 04:59:15;;;;;;;;;;;1.70;99.90;;;0.20;100.00;95137.06;10526718;28;1958;-80
2022/02/07 05:04:31;;;;;;;;;;;1.30;99.90;;;0.10;100.00;95145.50;10547327;28;1902;-80
2022/02/07 05:15:00;;;;;;;;;;;1.20;99.90;;;0.18;100.00;95170.81;10522134;28;1547;-81
2022/02/07 05:20:03;;;;;;;;;;;1.20;99.90;;;0.39;100.00;95175.63;10518459;28;1899;-78
2022/02/07 05:25:06;;;;;;;;;;;1.30;99.90;;;0.47;100.00;95200.94;10526487;28;1832;-81
2022/02/07 05:30:10;;;;;;;;;;;1.40;99.90;;;0.53;100.00;95210.63;10524879;28;1783;-80
2022/02/07 05:35:13;;;;;;;;;;;1.60;99.90;;;0.59;100.00;95214.22;10531868;28;1960;-81
2022/02/07 05:40:27;;;;;;;;;;;1.60;99.90;;;0.57;100.00;95253.28;10518628;28;1941;-81
2022/02/07 05:45:30;;;;;;;;;;;1.60;99.90;;;0.58;100.00;95266.31;10532998;28;1867;-81
2022/02/07 05:50:33;;;;;;;;;;;1.60;99.90;;;0.52;100.00;95283.06;10526215;28;1871;-79
2022/02/07 05:55:37;;;;;;;;;;;1.60;99.90;;;0.48;100.00;95290.63;10544322;28;2217;-85
2022/02/07 06:00:40;;;;;;;;;;;1.60;99.90;;;0.45;100.00;95314.09;10524056;28;1927;-85
2022/02/07 06:05:44;;;;;;;;;;;1.90;99.90;;;0.36;100.00;95323.31;10521526;28;1702;-84
2022/02/07 06:10:48;;;;;;;;;;;1.40;99.90;;;0.29;100.00;95356.97;10523032;28;1622;-86
2022/02/07 06:15:52;;;;;;;;;;;1.40;99.90;;;0.26;100.00;95374.88;10525344;28;1919;-86
2022/02/07 06:21:00;;;;;;;;;;;1.30;99.90;;;0.30;100.00;95406.97;10518406;28;2047;-86
2022/02/07 06:26:04;;;;;;;;;;;1.30;99.90;;;0.30;100.00;95419.38;10527720;28;1337;-85
2022/02/07 06:31:08;;;;;;;;;;;1.30;99.90;;;0.21;100.00;95432.06;10527513;28;1981;-83
2022/02/07 06:36:13;;;;;;;;;;;1.30;99.90;;;0.03;100.00;95461.09;10529995;28;1822;-82
2022/02/07 06:41:16;;;;;;;;;;;1.20;99.90;;;-0.08;100.00;95478.44;10550139;28;1956;-82
2022/02/07 06:46:19;;;;;;;;;;;1.00;99.90;;;-0.02;100.00;95494.25;10553353;28;1387;-84
2022/02/07 06:51:23;;;;;;;;;;;1.00;99.90;;;0.01;100.00;95508.06;10533471;28;1860;-85
2022/02/07 06:56:26;;;;;;;;;;;1.40;99.90;;;0.06;100.00;95511.66;10533679;28;1962;-85
2022/02/07 07:01:30;;;;;;;;;;;1.00;99.90;;;0.11;100.00;95526.91;10539262;28;1979;-83
2022/02/07 07:06:34;;;;;;;;;;;1.10;99.90;;;0.16;100.00;95537.63;10553863;28;1856;-83
2022/02/07 07:11:37;;;;;;;;;;;1.20;99.90;;;0.26;100.00;95556.50;10550502;28;1789;-84
2022/02/07 07:16:51;;;;;;;;;;;1.20;99.90;;;0.30;100.00;95565.59;10540631;28;1848;-86
2022/02/07 07:21:54;;;;;;;;;;;1.30;99.90;;;0.40;100.00;95570.41;10528721;28;1890;-82
2022/02/07 07:26:58;;;;;;;;;;;2.00;99.90;;;0.45;100.00;95578.53;10543478;22;1925;-72
2022/02/07 07:32:05;;;;;;;;;;;1.40;99.90;;;0.48;100.00;95597.41;10515072;28;1844;-72
2022/02/07 07:37:08;;;;;;;;;;;1.90;99.90;;;0.57;100.00;95592.66;10517754;28;1856;-71
2022/02/07 07:42:11;;;;;;;;;;;1.50;99.90;;;0.43;100.00;95610.44;10493093;28;1895;-70
2022/02/07 07:47:21;;;;;;;;;;;1.60;99.90;;;0.47;100.00;95630.16;10484449;28;1862;-69
2022/02/07 07:52:32;;;;;;;;;;;1.50;99.90;;;0.58;100.00;95631.31;10508675;28;1792;-68
2022/02/07 08:02:56;;;;;;;;;;;1.70;99.90;;;0.67;97.17;95643.25;10512632;28;2055;-66
2022/02/07 08:08:08;;;;;;;;;;;1.70;99.90;;;0.74;98.49;95629.97;10493267;28;2154;-68
2022/02/07 08:13:16;;;;;;;;;;;1.70;99.90;;;0.77;96.41;95650.72;10489222;28;1840;-69
2022/02/07 08:18:19;;;;;;;;;;;1.70;99.90;;;0.79;95.26;95670.63;10493066;28;1985;-67
2022/02/07 08:23:22;;;;;;;;;;;1.30;99.90;;;0.77;92.96;95683.28;10502972;28;1954;-68
2022/02/07 08:28:25;;;;;;;;;;;1.80;99.90;;;0.84;94.05;95688.53;10487381;28;1838;-68
2022/02/07 08:33:28;;;;;;;;;;;1.70;99.90;;;0.91;94.89;95721.03;10486206;28;2385;-68
2022/02/07 08:38:31;;;;;;;;;;;1.80;99.90;;;0.99;96.07;95720.78;10500063;28;1992;-68
2022/02/07 08:43:34;;;;;;;;;;;1.90;99.90;;;0.85;97.82;95742.25;10529829;28;1820;-68
2022/02/07 08:48:36;;;;;;;;;;;1.90;99.90;;;0.89;98.67;95756.66;10491267;28;1770;-69
2022/02/07 08:53:42;;;;;;;;;;;1.80;99.90;;;0.93;95.75;95760.53;10522814;28;1879;-69
2022/02/07 08:58:48;;;;;;;;;;;1.80;99.90;;;1.00;95.67;95761.28;10504684;28;2360;-69
2022/02/07 09:09:19;;;;;;;;;;;1.90;99.90;;;1.14;95.73;95799.88;10495588;28;1928;-69
2022/02/07 09:14:23;;;;;;;;;;;2.00;99.90;;;1.05;95.40;95801.16;10509795;28;1831;-68
2022/02/07 09:19:26;;;;;;;;;;;2.00;99.90;;;0.99;95.56;95813.41;10496133;28;1980;-68
2022/02/07 09:24:29;;;;;;;;;;;2.00;99.90;;;1.33;94.25;95819.31;10524753;28;2379;-69
2022/02/07 09:29:32;;;;;;;;;;;2.10;99.90;;;1.58;92.86;95817.50;10519571;28;1944;-68
2022/02/07 09:34:37;;;;;;;;;;;2.40;99.90;;;1.48;92.16;95830.44;10509418;28;1795;-67
2022/02/07 09:39:40;;;;;;;;;;;2.40;99.90;;;1.72;90.51;95857.13;10513352;28;1910;-68
2022/02/07 09:44:47;;;;;;;;;;;2.40;99.90;;;1.80;90.01;95862.19;10521011;28;2196;-68
2022/02/07 09:49:50;;;;;;;;;;;2.60;99.90;;;1.66;90.23;95881.88;10507323;28;1846;-67
2022/02/07 09:54:53;;;;;;;;;;;2.50;99.90;;;1.41;91.70;95889.78;10513440;28;1848;-69
2022/02/07 10:00:03;;;;;;;;;;;2.20;99.90;;;1.39;91.39;95900.56;10521255;28;2038;-68
2022/02/07 10:05:12;;;;;;;;;;;2.30;99.90;;;1.66;91.31;95908.38;10523677;28;1923;-68
2022/02/07 10:10:26;;;;;;;;;;;2.40;99.90;;;1.66;91.84;95914.47;10498439;28;1856;-68
2022/02/07 10:15:35;;;;;;;;;;;2.50;99.90;;;1.92;89.89;95921.44;10503949;28;1835;-70
2022/02/07 10:21:09;;;;;;;;;;;2.70;99.90;;;1.78;90.47;95941.09;10496493;28;1925;-70
2022/02/07 10:42:32;;;;;;;;;;;2.80;99.90;;;2.00;88.34;95981.31;10462011;28;2100;-68
2022/02/07 10:47:35;;;;;;;;;;;2.80;99.90;;;1.92;90.02;95966.50;10485628;28;2206;-66
2022/02/07 10:52:37;;;;;;;;;;;2.70;99.90;;;1.66;88.44;95987.88;10492608;28;1939;-68
2022/02/07 10:57:43;;;;;;;;;;;2.60;99.90;;;1.81;89.94;95991.03;10510317;28;2299;-67
2022/02/07 11:02:54;;;;;;;;;;;2.50;99.90;;;1.90;88.18;95987.91;10509080;28;1975;-66
2022/02/07 11:08:07;;;;;;;;;;;2.70;99.90;;;1.82;88.88;95998.75;10509517;28;2200;-68
2022/02/07 11:18:36;;;;;;;;;;;2.90;99.90;;;2.12;86.99;96006.13;10495123;28;2098;-68
2022/02/07 11:23:49;;;;;;;;;;;2.90;99.90;;;2.18;89.18;96031.78;10519279;28;2297;-68
2022/02/07 11:28:53;;;;;;;;;;;2.90;99.90;;;2.21;87.07;96025.22;10517199;28;1954;-67
2022/02/07 11:34:02;;;;;;;;;;;3.00;99.90;;;2.52;88.53;96030.50;10509701;28;1853;-67
2022/02/07 11:39:06;;;;;;;;;;;3.20;99.90;;;2.46;87.74;96047.28;10494395;28;1884;-67
2022/02/07 11:44:10;;;;;;;;;;;;;;;1.99;89.01;96051.28;10510921;28;1833;-67
2022/02/07 11:49:14;;;;;;;;;;;;;;;2.21;87.54;96065.03;10508293;28;1965;-67
2022/02/07 11:54:17;;;;;;;;;;;;;;;2.37;86.43;96089.19;10484950;28;2401;-67
2022/02/07 11:59:28;;;;;;;;;;;;;;;2.31;86.02;96092.72;10488751;28;1906;-68
2022/02/07 12:04:36;;;;;;;;;;;;;;;2.52;87.66;96080.13;10503312;28;1873;-68
2022/02/07 12:09:40;;;;;;;;;;;;;;;2.56;86.05;96099.91;10496514;28;1853;-67
2022/02/07 12:14:43;;;;;;;;;;;3.10;99.90;;;2.46;86.15;96110.16;10488547;28;1986;-67
2022/02/07 12:19:48;;;;;;;;;;;3.00;99.90;;;2.71;86.64;96093.22;10490998;28;1934;-68
2022/02/07 12:24:53;;;;;;;;;;;3.50;99.90;;;2.51;84.59;96107.69;10484524;28;2396;-66
2022/02/07 12:35:19;;;;;;;;;;;3.40;99.90;;;2.59;84.76;96118.84;10496197;28;1973;-67
2022/02/07 12:40:22;;;;;;;;;;;4.00;99.90;;;2.38;85.90;96117.34;10504620;28;2220;-66
2022/02/07 12:45:28;;;;;;;;;;;;;;;2.22;86.64;96144.38;10485302;28;1952;-68
2022/02/07 12:50:32;;;;;;;;;;;;;;;2.32;85.98;96142.09;10504097;28;1853;-67
2022/02/07 12:55:36;;;;;;;;;;;;;;;2.43;87.07;96165.28;10491709;28;1915;-68
2022/02/07 13:00:40;;;;;;;;;;;;;;;2.31;86.26;96152.91;10507463;28;1914;-68
2022/02/07 13:05:43;;;;;;;;;;;3.00;99.90;;;2.31;87.48;96155.56;10506833;28;1857;-69
2022/02/07 13:10:46;;;;;;;;;;;;;;;2.13;87.09;96165.03;10506201;28;1948;-68
2022/02/07 13:15:50;;;;;;;;;;;3.10;99.90;;;2.12;86.80;96175.84;10507250;28;2012;-68
2022/02/07 13:20:54;;;;;;;;;;;;;;;2.10;87.40;96168.13;10512568;28;2396;-68
2022/02/07 13:26:02;;;;;;;;;;;;;;;2.02;87.37;96178.94;10502554;28;1784;-68
2022/02/07 13:31:05;;;;;;;;;;;;;;;2.15;87.24;96178.88;10482529;28;1878;-68
2022/02/07 13:36:09;;;;;;;;;;;3.10;99.90;;;2.33;87.08;96196.75;10493494;28;2014;-69
2022/02/07 13:41:13;;;;;;;;;;;3.10;99.90;;;2.30;87.18;96214.97;10494972;28;1994;-67
2022/02/07 13:46:16;;;;;;;;;;;3.40;99.90;;;2.38;87.32;96209.41;10490624;28;1882;-68
2022/02/07 13:51:18;;;;;;;;;;;3.20;99.90;;;2.26;87.00;96216.41;10488174;28;1825;-68
2022/02/07 13:56:21;;;;;;;;;;;3.20;99.90;;;2.21;86.92;96232.13;10514723;28;1932;-68
2022/02/07 14:01:26;;;;;;;;;;;3.10;99.90;;;2.27;86.58;96229.44;10502045;28;1906;-67
2022/02/07 14:06:30;;;;;;;;;;;3.20;99.90;;;2.19;86.57;96231.53;10498265;28;1881;-67
2022/02/07 14:11:33;;;;;;;;;;;3.10;99.90;;;2.15;86.56;96241.72;10514766;28;1956;-67
2022/02/07 14:16:40;;;;;;;;;;;3.10;99.90;;;2.37;85.56;96239.63;10497692;28;1941;-69
2022/02/07 14:21:43;;;;;;;;;;;3.20;99.90;;;2.35;85.39;96252.25;10505287;28;1887;-67
2022/02/07 14:26:46;;;;;;;;;;;3.20;99.90;;;2.27;85.12;96263.94;10499930;28;1811;-66
2022/02/07 14:31:49;;;;;;;;;;;;;;;2.06;86.46;96264.19;10499039;28;1836;-68
2022/02/07 14:36:52;;;;;;;;;;;;;;;2.30;85.61;96268.00;10505170;28;1832;-67
2022/02/07 14:42:00;;;;;;;;;;;;;;;2.27;85.07;96266.56;10509318;28;1910;-66
2022/02/07 14:47:10;;;;;;;;;;;;;;;2.24;85.29;96280.28;10509926;28;1824;-67
2022/02/07 14:52:14;;;;;;;;;;;;;;;2.12;85.69;96274.78;10511232;28;1856;-68
2022/02/07 14:57:18;;;;;;;;;;;;;;;1.99;86.53;96287.28;10497678;28;1851;-68
2022/02/07 15:02:22;;;;;;;;;;;;;;;1.80;86.62;96296.88;10521365;28;1997;-67
2022/02/07 15:07:25;;;;;;;;;;;3.10;99.90;;;1.54;87.54;96306.47;10518578;28;1839;-67
2022/02/07 15:12:28;;;;;;;;;;;3.80;99.90;;;1.53;87.38;96312.78;10489948;28;1884;-68
2022/02/07 15:17:31;;;;;;;;;;;2.60;99.90;;;1.59;87.78;96317.28;10511536;28;1873;-69
2022/02/07 15:22:34;;;;;;;;;;;2.70;99.90;;;1.57;87.20;96319.31;10513834;28;2344;-67
2022/02/07 15:27:37;;;;;;;;;;;2.70;99.90;;;1.51;87.53;96343.97;10504831;28;1884;-67
2022/02/07 15:33:00;;;;;;;;;;;2.60;99.90;;;1.44;88.09;96356.38;10501698;28;2162;-69
2022/02/07 15:38:03;;;;;;;;;;;2.50;99.90;;;1.39;89.54;96353.53;10531659;28;1857;-67
2022/02/07 15:43:06;;;;;;;;;;;2.50;99.90;;;1.31;90.06;96357.19;10505162;28;2162;-68
2022/02/07 15:48:09;;;;;;;;;;;2.40;99.90;;;1.31;90.06;96374.91;10516032;28;1942;-67
2022/02/07 15:53:12;;;;;;;;;;;2.40;99.90;;;1.30;90.26;96386.53;10502197;28;1848;-67
2022/02/07 15:58:14;;;;;;;;;;;2.40;99.90;;;1.20;91.37;96396.66;10488865;28;1929;-67
2022/02/07 16:03:17;;;;;;;;;;;2.30;99.90;;;1.17;92.14;96381.19;10487422;28;1930;-68
2022/02/07 16:08:21;;;;;;;;;;;2.30;99.90;;;1.10;91.70;96406.84;10488618;28;1883;-68
2022/02/07 16:13:32;;;;;;;;;;;2.20;99.90;;;1.10;92.47;96409.50;10493962;28;1921;-67
2022/02/07 16:18:35;;;;;;;;;;;2.20;99.90;;;1.16;91.10;96421.94;10494555;28;1843;-68
2022/02/07 16:23:38;;;;;;;;;;;2.20;99.90;;;1.09;91.20;96424.56;10498619;28;1981;-67
2022/02/07 16:28:41;;;;;;;;;;;2.20;99.90;;;1.04;91.31;96441.03;10505064;28;1938;-68
2022/02/07 16:33:43;;;;;;;;;;;2.20;99.90;;;1.00;91.49;96454.84;10508332;28;1852;-68
2022/02/07 16:38:47;;;;;;;;;;;2.10;99.90;;;0.89;91.32;96464.19;10484373;28;1914;-68
2022/02/07 16:43:50;;;;;;;;;;;2.00;99.90;;;0.83;91.65;96488.78;10485396;28;2019;-66
2022/02/07 16:48:53;;;;;;;;;;;2.00;99.90;;;0.78;91.59;96493.84;10506529;28;1819;-68
2022/02/07 16:53:56;;;;;;;;;;;1.90;99.90;;;0.90;90.94;96502.88;10484295;28;1530;-68
2022/02/07 16:58:59;;;;;;;;;;;2.00;99.90;;;1.02;90.78;96522.50;10480047;28;1810;-68
2022/02/07 17:04:01;;;;;;;;;;;2.80;99.90;;;1.21;89.69;96520.13;10498977;28;1906;-68
2022/02/07 17:09:04;;;;;;;;;;;2.10;99.90;;;1.25;89.35;96519.53;10517820;28;1996;-68
2022/02/07 17:14:07;;;;;;;;;;;2.30;99.90;;;1.26;88.48;96533.59;10502798;28;1929;-67
2022/02/07 17:19:10;;;;;;;;;;;2.30;99.90;;;1.05;89.85;96526.56;10483878;28;1833;-67
2022/02/07 17:24:13;;;;;;;;;;;2.20;99.90;;;0.87;91.00;96536.84;10502485;28;1929;-65
2022/02/07 17:29:16;;;;;;;;;;;2.00;99.90;;;0.88;90.81;96539.28;10482569;28;1959;-69
2022/02/07 17:34:19;;;;;;;;;;;2.00;99.90;;;0.80;91.17;96539.44;10482829;28;1803;-65
2022/02/07 17:39:24;;;;;;;;;;;1.90;99.90;;;0.78;91.42;96547.59;10507477;28;1863;-68
2022/02/07 17:44:27;;;;;;;;;;;1.90;99.90;;;0.75;91.27;96558.53;10516202;28;1981;-67
2022/02/07 17:49:30;;;;;;;;;;;2.10;99.90;;;0.69;91.76;96567.25;10493982;28;1990;-69
2022/02/07 17:54:33;;;;;;;;;;;1.80;99.90;;;0.62;92.72;96562.94;10520030;28;1806;-69
2022/02/07 17:59:36;;;;;;;;;;;1.80;99.90;;;0.49;93.69;96577.69;10508934;28;2394;-68
2022/02/07 18:04:39;;;;;;;;;;;1.80;99.90;;;0.54;93.31;96588.50;10498134;28;1929;-70
2022/02/07 18:09:43;;;;;;;;;;;1.70;99.90;;;0.51;93.23;96588.09;10520789;28;2156;-69
2022/02/07 18:14:46;;;;;;;;;;;1.70;99.90;;;0.49;94.35;96598.84;10498380;28;1849;-68
2022/02/07 18:19:55;;;;;;;;;;;1.70;99.90;;;0.48;94.03;96609.63;10499363;28;1964;-70
2022/02/07 18:25:12;;;;;;;;;;;1.60;99.90;;;0.42;94.88;96603.25;10515782;28;1981;-68
2022/02/07 18:30:16;;;;;;;;;;;1.60;99.90;;;0.45;94.75;96617.94;10505077;28;1790;-68
2022/02/07 18:35:19;;;;;;;;;;;1.60;99.90;;;0.44;94.15;96613.66;10502619;28;1947;-68
2022/02/07 18:40:25;;;;;;;;;;;1.60;99.90;;;0.50;93.88;96640.16;10499014;28;1828;-69
2022/02/07 18:45:29;;;;;;;;;;;1.60;99.90;;;0.46;93.26;96628.34;10517208;28;1917;-68
2022/02/07 18:50:32;;;;;;;;;;;1.60;99.90;;;0.39;94.07;96640.69;10508609;28;2014;-68
2022/02/07 18:55:35;;;;;;;;;;;1.90;99.90;;;0.34;94.28;96651.00;10495175;28;1512;-68
2022/02/07 19:00:49;;;;;;;;;;;1.60;99.90;;;0.33;94.29;96659.94;10488014;28;1856;-68
2022/02/07 19:06:14;;;;;;;;;;;1.50;99.90;;;0.34;94.38;96669.50;10517366;28;1922;-69
2022/02/07 19:11:21;;;;;;;;;;;1.50;99.90;;;0.39;94.22;96672.41;10493747;28;1462;-70
2022/02/07 19:16:27;;;;;;;;;;;1.50;99.90;;;0.56;93.93;96675.63;10516726;28;1627;-69
2022/02/07 19:21:33;;;;;;;;;;;1.60;99.90;;;0.74;91.96;96689.25;10497896;28;1963;-70
2022/02/07 19:26:40;;;;;;;;;;;1.70;99.90;;;0.77;91.71;96688.88;10520916;28;1710;-69
2022/02/07 19:31:48;;;;;;;;;;;1.80;99.90;;;0.73;91.35;96703.47;10513127;28;1458;-70
2022/02/07 19:36:53;;;;;;;;;;;1.80;99.90;;;0.67;91.15;96706.06;10540871;28;1558;-68
2022/02/07 19:42:01;;;;;;;;;;;1.80;99.90;;;0.71;89.89;96712.63;10503967;28;1951;-69
2022/02/07 19:47:10;;;;;;;;;;;1.80;99.90;;;0.55;90.23;96726.91;10516095;28;1769;-68
2022/02/07 19:52:13;;;;;;;;;;;1.70;99.90;;;0.45;90.06;96727.22;10511435;28;1623;-69
2022/02/07 19:57:16;;;;;;;;;;;1.60;99.90;;;0.44;89.99;96733.50;10502171;28;1842;-70
2022/02/07 20:02:21;;;;;;;;;;;1.60;99.90;;;0.36;90.24;96738.91;10496632;28;1925;-68
2022/02/07 20:07:25;;;;;;;;;;;1.50;99.90;;;0.37;89.98;96743.19;10497273;28;1344;-69
2022/02/07 20:12:28;;;;;;;;;;;1.50;99.90;;;0.42;89.50;96747.91;10502424;28;1747;-67
2022/02/07 20:17:31;;;;;;;;;;;1.50;99.90;;;0.53;87.93;96758.84;10531898;28;1405;-67
2022/02/07 20:22:34;;;;;;;;;;;1.60;99.90;;;0.59;87.90;96756.47;10501401;28;1913;-68
2022/02/07 20:27:37;;;;;;;;;;;1.60;99.90;;;0.61;87.50;96754.44;10517616;28;1538;-68
2022/02/07 20:32:44;;;;;;;;;;;1.70;99.90;;;0.73;85.99;96763.53;10499736;28;1499;-68
2022/02/07 20:37:47;;;;;;;;;;;1.70;99.90;;;0.78;85.35;96763.78;10486914;28;1426;-68
2022/02/07 20:42:51;;;;;;;;;;;1.80;99.90;;;0.82;84.43;96780.91;10513801;28;1953;-70
2022/02/07 20:47:57;;;;;;;;;;;1.80;99.90;;;0.77;83.98;96783.34;10517024;28;1402;-70
2022/02/07 20:52:59;;;;;;;;;;;1.80;99.90;;;0.76;83.27;96781.66;10513715;28;2351;-69
2022/02/07 20:58:02;;;;;;;;;;;1.80;99.90;;;0.78;82.61;96795.56;10518997;28;1704;-69
2022/02/07 21:03:25;;;;;;;;;;;1.80;99.90;;;0.89;81.66;96787.13;10528667;28;1894;-68
2022/02/07 21:08:29;;;;;;;;;;;1.90;99.90;;;0.86;80.85;96798.06;10519422;28;1910;-71
2022/02/07 21:13:32;;;;;;;;;;;1.90;99.90;;;0.98;79.77;96807.16;10539453;28;1908;-70
2022/02/07 21:18:35;;;;;;;;;;;1.90;99.90;;;1.00;79.20;96810.44;10519452;28;1922;-70
2022/02/07 21:23:38;;;;;;;;;;;2.00;99.90;;;1.11;78.25;96813.63;10520424;28;2351;-68
2022/02/07 21:28:41;;;;;;;;;;;2.10;99.90;;;1.13;77.59;96817.69;10495737;28;1957;-70
2022/02/07 21:33:46;;;;;;;;;;;2.10;99.90;;;1.22;75.94;96829.00;10511596;28;1845;-71
2022/02/07 21:38:49;;;;;;;;;;;2.20;99.90;;;1.26;75.37;96831.06;10508386;28;1727;-71
2022/02/07 21:43:52;;;;;;;;;;;2.30;99.90;;;1.27;75.31;96826.59;10509438;28;2136;-71
2022/02/07 21:48:55;;;;;;;;;;;2.30;99.90;;;1.26;75.47;96832.91;10481899;28;1906;-70
2022/02/07 21:54:03;;;;;;;;;;;2.30;99.90;;;1.37;75.83;96835.06;10511035;28;1990;-70
2022/02/07 21:59:06;;;;;;;;;;;2.30;99.90;;;1.32;75.94;96834.78;10496401;28;1847;-71
2022/02/07 22:04:10;;;;;;;;;;;2.40;99.90;;;1.31;77.68;96838.47;10517027;28;1914;-70
2022/02/07 22:09:15;;;;;;;;;;;2.30;99.90;;;1.35;75.71;96853.78;10498740;28;1745;-72
2022/02/07 22:14:24;;;;;;;;;;;2.40;99.90;;;1.37;76.66;96858.91;10516106;28;1839;-71
2022/02/07 22:19:27;;;;;;;;;;;2.40;99.90;;;1.28;77.47;96855.56;10508083;28;1916;-69
2022/02/07 22:24:30;;;;;;;;;;;2.40;99.90;;;1.27;77.92;96868.97;10487266;28;1914;-70
2022/02/07 22:29:35;;;;;;;;;;;2.40;99.90;;;1.35;77.93;96882.94;10515220;28;1849;-70
2022/02/07 22:34:46;;;;;;;;;;;2.40;99.90;;;1.33;78.24;96882.28;10510765;28;1869;-70
2022/02/07 22:39:50;;;;;;;;;;;2.40;99.90;;;1.30;78.63;96895.09;10494616;28;1780;-70
2022/02/07 22:44:53;;;;;;;;;;;2.40;99.90;;;1.23;79.49;96902.16;10509911;28;1914;-69
2022/02/07 22:49:56;;;;;;;;;;;2.30;99.90;;;1.07;80.51;96889.94;10508954;28;1740;-71
2022/02/07 22:54:59;;;;;;;;;;;2.20;99.90;;;0.94;81.01;96900.38;10510700;28;1908;-70
2022/02/07 23:00:02;;;;;;;;;;;2.10;99.90;;;0.88;81.59;96886.06;10507213;28;1883;-70
2022/02/07 23:05:07;;;;;;;;;;;2.00;99.90;;;0.77;82.08;96899.78;10453726;22;2123;-68
2022/02/07 23:10:28;;;;;;;;;;;1.90;99.90;;;0.71;82.40;96906.63;10420847;28;2061;-69
2022/02/07 23:15:40;;;;;;;;;;;1.90;99.90;;;0.71;81.80;96911.09;10443895;28;1940;-68
2022/02/07 23:31:44;;;;;;;;;;;1.80;99.90;;;0.73;81.80;96917.84;10426024;28;1834;-69
2022/02/07 23:36:58;;;;;;;;;;;1.80;99.90;;;0.67;80.65;96921.22;10438514;28;1931;-69
2022/02/07 23:42:02;;;;;;;;;;;1.80;99.90;;;0.52;81.90;96931.81;10440639;28;1903;-69
2022/02/07 23:47:14;;;;;;;;;;;1.60;99.90;;;0.45;82.56;96936.19;10440579;28;1910;-69
2022/02/07 23:52:31;;;;;;;;;;;1.60;99.90;;;0.32;82.90;96936.00;10420165;28;1898;-67
2022/02/07 23:57:41;;;;;;;;;;;1.60;99.90;;;0.32;83.00;96933.38;10436188;28;1872;-68
